sensor_id;sensor_type;location;lat;lon;timestamp;P1;durP1;ratioP1;P2;durP2;ratioP2
3704;SDS011;1868;48.918;9.438;2023-03-01T00:01:46;15.70;;;10.40;;
3704;SDS011;1868;48.918;9.438;2023-03-01T00:04:15;18.83;;;11.37;;
3704;SDS011;1868;48.918;9.438;2023-03-01T00:06:43;18.20;;;12.70;;
3704;SDS011;1868;48.918;9.438;2023-03-01T00:09:12;16.77;;;11.00;;
3704;SDS011;1868;48.918;9.438;2023-03-01T00:11:41;16.30;;;11.53;;
3704;SDS011;1868;48.918;9.438;2023-03-01T00:14:10;17.07;;;11.40;;
3704;SDS011;1868;48.918;9.438;2023-03-01T00:16:40;16.10;;;11.17;;
3704;SDS011;1868;48.918;9.438;2023-03-01T00:19:11;17.73;;;11.47;;
3704;SDS011;1868;48.918;9.438;2023-03-01T00:21:42;18.30;;;11.20;;
3704;SDS011;1868;48.918;9.438;2023-03-01T00:24:12;18.00;;;12.57;;
3704;SDS011;1868;48.918;9.438;2023-03-01T00:26:40;15.97;;;11.07;;
3704;SDS011;1868;48.918;9.438;2023-03-01T00:29:09;20.17;;;12.37;;
3704;SDS011;1868;48.918;9.438;2023-03-01T00:31:38;13.53;;;10.70;;
3704;SDS011;1868;48.918;9.438;2023-03-01T00:34:06;18.87;;;12.30;;
3704;SDS011;1868;48.918;9.438;2023-03-01T00:36:36;16.03;;;10.70;;
3704;SDS011;1868;48.918;9.438;2023-03-01T00:39:07;15.07;;;11.57;;
3704;SDS011;1868;48.918;9.438;2023-03-01T00:41:38;13.20;;;10.10;;
3704;SDS011;1868;48.918;9.438;2023-03-01T00:44:07;17.43;;;11.33;;
3704;SDS011;1868;48.918;9.438;2023-03-01T00:46:36;19.20;;;11.50;;
3704;SDS011;1868;48.918;9.438;2023-03-01T00:49:04;17.07;;;10.47;;
3704;SDS011;1868;48.918;9.438;2023-03-01T00:51:33;14.87;;;10.10;;
3704;SDS011;1868;48.918;9.438;2023-03-01T00:54:02;16.10;;;10.97;;
3704;SDS011;1868;48.918;9.438;2023-03-01T00:56:31;16.53;;;10.10;;
3704;SDS011;1868;48.918;9.438;2023-03-01T00:59:00;13.47;;;9.80;;
3704;SDS011;1868;48.918;9.438;2023-03-01T01:01:29;16.23;;;11.30;;
3704;SDS011;1868;48.918;9.438;2023-03-01T01:03:59;15.27;;;10.80;;
3704;SDS011;1868;48.918;9.438;2023-03-01T01:06:30;13.90;;;9.90;;
3704;SDS011;1868;48.918;9.438;2023-03-01T01:09:03;15.53;;;10.30;;
3704;SDS011;1868;48.918;9.438;2023-03-01T01:11:34;15.80;;;10.40;;
3704;SDS011;1868;48.918;9.438;2023-03-01T01:14:03;15.40;;;9.63;;
3704;SDS011;1868;48.918;9.438;2023-03-01T01:16:32;16.43;;;11.03;;
3704;SDS011;1868;48.918;9.438;2023-03-01T01:19:00;18.60;;;12.03;;
3704;SDS011;1868;48.918;9.438;2023-03-01T01:21:29;15.17;;;10.77;;
3704;SDS011;1868;48.918;9.438;2023-03-01T01:23:58;22.87;;;11.33;;
3704;SDS011;1868;48.918;9.438;2023-03-01T01:26:28;16.33;;;11.60;;
3704;SDS011;1868;48.918;9.438;2023-03-01T01:29:00;16.80;;;11.50;;
3704;SDS011;1868;48.918;9.438;2023-03-01T01:31:30;19.37;;;12.20;;
3704;SDS011;1868;48.918;9.438;2023-03-01T01:34:01;19.03;;;12.47;;
3704;SDS011;1868;48.918;9.438;2023-03-01T01:36:32;20.70;;;11.90;;
3704;SDS011;1868;48.918;9.438;2023-03-01T01:39:01;17.23;;;11.80;;
3704;SDS011;1868;48.918;9.438;2023-03-01T01:41:32;16.47;;;11.30;;
3704;SDS011;1868;48.918;9.438;2023-03-01T01:46:55;17.77;;;11.40;;
3704;SDS011;1868;48.918;9.438;2023-03-01T01:49:29;14.83;;;11.67;;
3704;SDS011;1868;48.918;9.438;2023-03-01T01:52:03;21.27;;;13.23;;
3704;SDS011;1868;48.918;9.438;2023-03-01T01:54:38;21.07;;;12.60;;
3704;SDS011;1868;48.918;9.438;2023-03-01T01:57:14;21.23;;;12.97;;
3704;SDS011;1868;48.918;9.438;2023-03-01T01:59:47;17.60;;;11.90;;
3704;SDS011;1868;48.918;9.438;2023-03-01T02:02:20;19.93;;;13.13;;
3704;SDS011;1868;48.918;9.438;2023-03-01T02:04:49;21.23;;;14.20;;
3704;SDS011;1868;48.918;9.438;2023-03-01T02:07:25;18.60;;;12.70;;
3704;SDS011;1868;48.918;9.438;2023-03-01T02:09:54;24.60;;;14.03;;
3704;SDS011;1868;48.918;9.438;2023-03-01T02:12:24;20.87;;;12.77;;
3704;SDS011;1868;48.918;9.438;2023-03-01T02:14:53;22.90;;;13.87;;
3704;SDS011;1868;48.918;9.438;2023-03-01T02:17:22;24.30;;;14.43;;
3704;SDS011;1868;48.918;9.438;2023-03-01T02:19:54;20.23;;;13.83;;
3704;SDS011;1868;48.918;9.438;2023-03-01T02:22:37;22.00;;;14.67;;
3704;SDS011;1868;48.918;9.438;2023-03-01T02:25:08;23.33;;;13.70;;
3704;SDS011;1868;48.918;9.438;2023-03-01T02:27:51;20.43;;;13.60;;
3704;SDS011;1868;48.918;9.438;2023-03-01T02:30:28;20.83;;;14.57;;
3704;SDS011;1868;48.918;9.438;2023-03-01T02:32:58;20.27;;;14.53;;
3704;SDS011;1868;48.918;9.438;2023-03-01T02:35:30;21.20;;;13.60;;
3704;SDS011;1868;48.918;9.438;2023-03-01T02:38:02;19.87;;;13.33;;
3704;SDS011;1868;48.918;9.438;2023-03-01T02:40:34;16.30;;;12.90;;
3704;SDS011;1868;48.918;9.438;2023-03-01T02:43:06;17.67;;;13.30;;
3704;SDS011;1868;48.918;9.438;2023-03-01T02:45:47;23.00;;;13.97;;
3704;SDS011;1868;48.918;9.438;2023-03-01T02:48:16;17.50;;;12.00;;
3704;SDS011;1868;48.918;9.438;2023-03-01T02:50:51;23.50;;;14.70;;
3704;SDS011;1868;48.918;9.438;2023-03-01T02:53:33;19.30;;;11.93;;
3704;SDS011;1868;48.918;9.438;2023-03-01T02:56:09;18.60;;;13.17;;
3704;SDS011;1868;48.918;9.438;2023-03-01T02:58:39;21.57;;;13.43;;
3704;SDS011;1868;48.918;9.438;2023-03-01T03:01:14;19.77;;;14.20;;
3704;SDS011;1868;48.918;9.438;2023-03-01T03:03:42;20.67;;;13.90;;
3704;SDS011;1868;48.918;9.438;2023-03-01T03:06:12;22.30;;;14.60;;
3704;SDS011;1868;48.918;9.438;2023-03-01T03:08:41;22.93;;;13.40;;
3704;SDS011;1868;48.918;9.438;2023-03-01T03:11:10;16.13;;;12.03;;
3704;SDS011;1868;48.918;9.438;2023-03-01T03:13:38;19.57;;;12.77;;
3704;SDS011;1868;48.918;9.438;2023-03-01T03:16:16;21.23;;;13.97;;
3704;SDS011;1868;48.918;9.438;2023-03-01T03:18:44;19.17;;;12.87;;
3704;SDS011;1868;48.918;9.438;2023-03-01T03:21:13;25.27;;;14.83;;
3704;SDS011;1868;48.918;9.438;2023-03-01T03:23:42;17.40;;;12.73;;
3704;SDS011;1868;48.918;9.438;2023-03-01T03:26:11;19.20;;;13.50;;
3704;SDS011;1868;48.918;9.438;2023-03-01T03:28:41;19.63;;;13.23;;
3704;SDS011;1868;48.918;9.438;2023-03-01T03:31:09;20.53;;;13.33;;
3704;SDS011;1868;48.918;9.438;2023-03-01T03:33:39;20.57;;;13.80;;
3704;SDS011;1868;48.918;9.438;2023-03-01T03:36:08;21.40;;;14.00;;
3704;SDS011;1868;48.918;9.438;2023-03-01T03:38:39;19.93;;;13.60;;
3704;SDS011;1868;48.918;9.438;2023-03-01T03:41:07;22.73;;;13.20;;
3704;SDS011;1868;48.918;9.438;2023-03-01T03:43:36;19.40;;;13.40;;
3704;SDS011;1868;48.918;9.438;2023-03-01T03:46:06;20.80;;;13.80;;
3704;SDS011;1868;48.918;9.438;2023-03-01T03:48:35;19.80;;;13.30;;
3704;SDS011;1868;48.918;9.438;2023-03-01T03:51:07;20.23;;;13.20;;
3704;SDS011;1868;48.918;9.438;2023-03-01T03:53:38;18.87;;;12.60;;
3704;SDS011;1868;48.918;9.438;2023-03-01T03:56:07;24.83;;;13.23;;
3704;SDS011;1868;48.918;9.438;2023-03-01T03:58:36;18.40;;;12.67;;
3704;SDS011;1868;48.918;9.438;2023-03-01T04:01:04;19.97;;;13.23;;
3704;SDS011;1868;48.918;9.438;2023-03-01T04:03:33;20.77;;;13.50;;
3704;SDS011;1868;48.918;9.438;2023-03-01T04:06:02;19.33;;;14.07;;
3704;SDS011;1868;48.918;9.438;2023-03-01T04:08:33;20.27;;;13.93;;
3704;SDS011;1868;48.918;9.438;2023-03-01T04:11:02;18.67;;;12.23;;
3704;SDS011;1868;48.918;9.438;2023-03-01T04:13:46;20.93;;;13.30;;
3704;SDS011;1868;48.918;9.438;2023-03-01T04:16:14;18.80;;;12.93;;
3704;SDS011;1868;48.918;9.438;2023-03-01T04:18:44;20.60;;;13.40;;
3704;SDS011;1868;48.918;9.438;2023-03-01T04:21:12;21.10;;;13.83;;
3704;SDS011;1868;48.918;9.438;2023-03-01T04:23:42;18.73;;;12.47;;
3704;SDS011;1868;48.918;9.438;2023-03-01T04:26:11;17.30;;;13.00;;
3704;SDS011;1868;48.918;9.438;2023-03-01T04:28:40;18.30;;;13.23;;
3704;SDS011;1868;48.918;9.438;2023-03-01T04:31:12;19.23;;;13.70;;
3704;SDS011;1868;48.918;9.438;2023-03-01T04:33:45;21.70;;;14.37;;
3704;SDS011;1868;48.918;9.438;2023-03-01T04:36:19;17.93;;;12.50;;
3704;SDS011;1868;48.918;9.438;2023-03-01T04:38:50;19.07;;;13.83;;
3704;SDS011;1868;48.918;9.438;2023-03-01T04:41:20;17.53;;;12.60;;
3704;SDS011;1868;48.918;9.438;2023-03-01T04:43:51;17.53;;;12.13;;
3704;SDS011;1868;48.918;9.438;2023-03-01T04:46:19;18.30;;;12.73;;
3704;SDS011;1868;48.918;9.438;2023-03-01T04:48:49;19.93;;;14.00;;
3704;SDS011;1868;48.918;9.438;2023-03-01T04:51:17;22.93;;;13.50;;
3704;SDS011;1868;48.918;9.438;2023-03-01T04:53:45;16.60;;;12.33;;
3704;SDS011;1868;48.918;9.438;2023-03-01T04:56:15;18.17;;;12.87;;
3704;SDS011;1868;48.918;9.438;2023-03-01T04:58:44;20.10;;;13.10;;
3704;SDS011;1868;48.918;9.438;2023-03-01T05:01:14;21.33;;;14.17;;
3704;SDS011;1868;48.918;9.438;2023-03-01T05:03:46;19.50;;;13.93;;
3704;SDS011;1868;48.918;9.438;2023-03-01T05:06:16;19.20;;;13.03;;
3704;SDS011;1868;48.918;9.438;2023-03-01T05:08:46;19.47;;;13.60;;
3704;SDS011;1868;48.918;9.438;2023-03-01T05:11:16;21.63;;;13.90;;
3704;SDS011;1868;48.918;9.438;2023-03-01T05:13:44;20.90;;;14.17;;
3704;SDS011;1868;48.918;9.438;2023-03-01T05:16:12;23.40;;;14.80;;
3704;SDS011;1868;48.918;9.438;2023-03-01T05:18:41;23.10;;;15.53;;
3704;SDS011;1868;48.918;9.438;2023-03-01T05:21:10;20.87;;;13.73;;
3704;SDS011;1868;48.918;9.438;2023-03-01T05:23:42;21.97;;;14.43;;
3704;SDS011;1868;48.918;9.438;2023-03-01T05:26:10;21.43;;;14.13;;
3704;SDS011;1868;48.918;9.438;2023-03-01T05:28:55;22.40;;;15.83;;
3704;SDS011;1868;48.918;9.438;2023-03-01T05:31:25;23.00;;;15.00;;
3704;SDS011;1868;48.918;9.438;2023-03-01T05:33:54;25.77;;;17.70;;
3704;SDS011;1868;48.918;9.438;2023-03-01T05:36:22;22.10;;;15.90;;
3704;SDS011;1868;48.918;9.438;2023-03-01T05:38:51;21.10;;;14.30;;
3704;SDS011;1868;48.918;9.438;2023-03-01T05:41:19;21.97;;;15.27;;
3704;SDS011;1868;48.918;9.438;2023-03-01T05:43:47;20.93;;;15.00;;
3704;SDS011;1868;48.918;9.438;2023-03-01T05:46:18;21.70;;;14.47;;
3704;SDS011;1868;48.918;9.438;2023-03-01T05:48:46;23.00;;;14.27;;
3704;SDS011;1868;48.918;9.438;2023-03-01T05:51:15;24.63;;;16.33;;
3704;SDS011;1868;48.918;9.438;2023-03-01T05:53:43;24.13;;;15.70;;
3704;SDS011;1868;48.918;9.438;2023-03-01T05:56:12;18.83;;;13.80;;
3704;SDS011;1868;48.918;9.438;2023-03-01T05:58:40;21.37;;;13.90;;
3704;SDS011;1868;48.918;9.438;2023-03-01T06:01:10;21.77;;;14.43;;
3704;SDS011;1868;48.918;9.438;2023-03-01T06:03:41;26.33;;;15.20;;
3704;SDS011;1868;48.918;9.438;2023-03-01T06:06:10;20.07;;;13.93;;
3704;SDS011;1868;48.918;9.438;2023-03-01T06:08:38;22.50;;;14.40;;
3704;SDS011;1868;48.918;9.438;2023-03-01T06:11:06;18.73;;;13.63;;
3704;SDS011;1868;48.918;9.438;2023-03-01T06:13:35;27.70;;;16.07;;
3704;SDS011;1868;48.918;9.438;2023-03-01T06:16:04;23.40;;;15.80;;
3704;SDS011;1868;48.918;9.438;2023-03-01T06:18:34;20.43;;;13.70;;
3704;SDS011;1868;48.918;9.438;2023-03-01T06:21:04;21.33;;;13.60;;
3704;SDS011;1868;48.918;9.438;2023-03-01T06:23:35;20.23;;;14.57;;
3704;SDS011;1868;48.918;9.438;2023-03-01T06:26:05;26.60;;;17.07;;
3704;SDS011;1868;48.918;9.438;2023-03-01T06:28:34;22.67;;;15.10;;
3704;SDS011;1868;48.918;9.438;2023-03-01T06:31:03;21.43;;;14.30;;
3704;SDS011;1868;48.918;9.438;2023-03-01T06:33:35;21.53;;;14.80;;
3704;SDS011;1868;48.918;9.438;2023-03-01T06:36:05;20.77;;;14.70;;
3704;SDS011;1868;48.918;9.438;2023-03-01T06:38:35;25.73;;;14.77;;
3704;SDS011;1868;48.918;9.438;2023-03-01T06:41:04;20.43;;;14.00;;
3704;SDS011;1868;48.918;9.438;2023-03-01T06:43:33;23.77;;;15.93;;
3704;SDS011;1868;48.918;9.438;2023-03-01T06:46:03;23.23;;;14.63;;
3704;SDS011;1868;48.918;9.438;2023-03-01T06:48:33;21.00;;;14.90;;
3704;SDS011;1868;48.918;9.438;2023-03-01T06:51:02;24.50;;;15.90;;
3704;SDS011;1868;48.918;9.438;2023-03-01T06:53:32;22.50;;;15.70;;
3704;SDS011;1868;48.918;9.438;2023-03-01T06:56:01;21.40;;;15.57;;
3704;SDS011;1868;48.918;9.438;2023-03-01T06:58:30;24.00;;;16.13;;
3704;SDS011;1868;48.918;9.438;2023-03-01T07:00:58;22.63;;;15.30;;
3704;SDS011;1868;48.918;9.438;2023-03-01T07:03:31;23.27;;;15.57;;
3704;SDS011;1868;48.918;9.438;2023-03-01T07:06:00;21.20;;;15.73;;
3704;SDS011;1868;48.918;9.438;2023-03-01T07:08:30;28.63;;;17.50;;
3704;SDS011;1868;48.918;9.438;2023-03-01T07:10:58;28.27;;;19.57;;
3704;SDS011;1868;48.918;9.438;2023-03-01T07:13:29;22.30;;;17.00;;
3704;SDS011;1868;48.918;9.438;2023-03-01T07:16:00;24.30;;;16.87;;
3704;SDS011;1868;48.918;9.438;2023-03-01T07:18:28;24.60;;;18.13;;
3704;SDS011;1868;48.918;9.438;2023-03-01T07:20:57;20.57;;;15.80;;
3704;SDS011;1868;48.918;9.438;2023-03-01T07:23:25;25.00;;;17.20;;
3704;SDS011;1868;48.918;9.438;2023-03-01T07:25:55;21.83;;;16.50;;
3704;SDS011;1868;48.918;9.438;2023-03-01T07:28:23;22.87;;;17.40;;
3704;SDS011;1868;48.918;9.438;2023-03-01T07:30:55;22.87;;;17.27;;
3704;SDS011;1868;48.918;9.438;2023-03-01T07:33:28;24.87;;;17.67;;
3704;SDS011;1868;48.918;9.438;2023-03-01T07:35:57;21.20;;;16.37;;
3704;SDS011;1868;48.918;9.438;2023-03-01T07:38:26;24.23;;;18.17;;
3704;SDS011;1868;48.918;9.438;2023-03-01T07:40:58;21.20;;;16.50;;
3704;SDS011;1868;48.918;9.438;2023-03-01T07:43:28;21.70;;;16.83;;
3704;SDS011;1868;48.918;9.438;2023-03-01T07:45:58;22.90;;;17.50;;
3704;SDS011;1868;48.918;9.438;2023-03-01T07:48:28;24.93;;;17.93;;
3704;SDS011;1868;48.918;9.438;2023-03-01T07:50:58;21.20;;;17.23;;
3704;SDS011;1868;48.918;9.438;2023-03-01T07:53:27;21.33;;;15.90;;
3704;SDS011;1868;48.918;9.438;2023-03-01T07:56:01;20.13;;;16.07;;
3704;SDS011;1868;48.918;9.438;2023-03-01T07:58:31;22.33;;;17.80;;
3704;SDS011;1868;48.918;9.438;2023-03-01T08:01:02;23.70;;;18.73;;
3704;SDS011;1868;48.918;9.438;2023-03-01T08:03:31;22.13;;;15.70;;
3704;SDS011;1868;48.918;9.438;2023-03-01T08:06:00;19.13;;;16.03;;
3704;SDS011;1868;48.918;9.438;2023-03-01T08:08:29;21.70;;;17.17;;
3704;SDS011;1868;48.918;9.438;2023-03-01T08:11:02;19.70;;;16.50;;
3704;SDS011;1868;48.918;9.438;2023-03-01T08:13:33;20.53;;;16.63;;
3704;SDS011;1868;48.918;9.438;2023-03-01T08:16:02;18.60;;;15.60;;
3704;SDS011;1868;48.918;9.438;2023-03-01T08:18:31;21.23;;;16.30;;
3704;SDS011;1868;48.918;9.438;2023-03-01T08:21:01;20.27;;;16.60;;
3704;SDS011;1868;48.918;9.438;2023-03-01T08:23:30;25.10;;;17.73;;
3704;SDS011;1868;48.918;9.438;2023-03-01T08:26:08;18.50;;;16.00;;
3704;SDS011;1868;48.918;9.438;2023-03-01T08:28:39;32.47;;;25.07;;
3704;SDS011;1868;48.918;9.438;2023-03-01T08:31:16;22.10;;;17.83;;
3704;SDS011;1868;48.918;9.438;2023-03-01T08:33:47;18.80;;;16.80;;
3704;SDS011;1868;48.918;9.438;2023-03-01T08:36:21;19.20;;;16.90;;
3704;SDS011;1868;48.918;9.438;2023-03-01T08:38:50;21.87;;;17.90;;
3704;SDS011;1868;48.918;9.438;2023-03-01T08:41:20;21.07;;;17.10;;
3704;SDS011;1868;48.918;9.438;2023-03-01T08:43:49;21.73;;;17.03;;
3704;SDS011;1868;48.918;9.438;2023-03-01T08:46:18;17.23;;;15.43;;
3704;SDS011;1868;48.918;9.438;2023-03-01T08:48:46;21.10;;;16.97;;
3704;SDS011;1868;48.918;9.438;2023-03-01T08:51:15;19.63;;;16.80;;
3704;SDS011;1868;48.918;9.438;2023-03-01T08:53:45;17.50;;;15.70;;
3704;SDS011;1868;48.918;9.438;2023-03-01T08:56:15;20.93;;;16.70;;
3704;SDS011;1868;48.918;9.438;2023-03-01T08:58:47;19.47;;;16.20;;
3704;SDS011;1868;48.918;9.438;2023-03-01T09:01:17;20.43;;;16.80;;
3704;SDS011;1868;48.918;9.438;2023-03-01T09:03:46;20.47;;;17.70;;
3704;SDS011;1868;48.918;9.438;2023-03-01T09:06:15;17.50;;;14.73;;
3704;SDS011;1868;48.918;9.438;2023-03-01T09:08:44;17.70;;;15.87;;
3704;SDS011;1868;48.918;9.438;2023-03-01T09:11:15;17.33;;;15.40;;
3704;SDS011;1868;48.918;9.438;2023-03-01T09:13:47;18.47;;;15.70;;
3704;SDS011;1868;48.918;9.438;2023-03-01T09:16:16;16.80;;;15.03;;
3704;SDS011;1868;48.918;9.438;2023-03-01T09:18:48;18.80;;;14.90;;
3704;SDS011;1868;48.918;9.438;2023-03-01T09:21:18;20.03;;;16.00;;
3704;SDS011;1868;48.918;9.438;2023-03-01T09:24:05;16.93;;;15.13;;
3704;SDS011;1868;48.918;9.438;2023-03-01T09:27:14;16.47;;;14.63;;
3704;SDS011;1868;48.918;9.438;2023-03-01T09:29:46;18.03;;;15.40;;
3704;SDS011;1868;48.918;9.438;2023-03-01T09:35:28;15.57;;;13.73;;
3704;SDS011;1868;48.918;9.438;2023-03-01T09:37:59;14.80;;;13.20;;
3704;SDS011;1868;48.918;9.438;2023-03-01T09:40:28;17.90;;;16.10;;
3704;SDS011;1868;48.918;9.438;2023-03-01T09:42:59;18.20;;;15.90;;
3704;SDS011;1868;48.918;9.438;2023-03-01T09:45:37;19.10;;;14.27;;
3704;SDS011;1868;48.918;9.438;2023-03-01T09:48:12;23.17;;;15.07;;
3704;SDS011;1868;48.918;9.438;2023-03-01T09:50:44;15.30;;;13.73;;
3704;SDS011;1868;48.918;9.438;2023-03-01T09:53:14;17.37;;;15.53;;
3704;SDS011;1868;48.918;9.438;2023-03-01T09:55:46;20.23;;;13.27;;
3704;SDS011;1868;48.918;9.438;2023-03-01T09:58:28;18.10;;;12.23;;
3704;SDS011;1868;48.918;9.438;2023-03-01T10:01:13;14.20;;;12.63;;
3704;SDS011;1868;48.918;9.438;2023-03-01T10:04:04;14.80;;;13.30;;
3704;SDS011;1868;48.918;9.438;2023-03-01T10:07:16;16.83;;;14.87;;
3704;SDS011;1868;48.918;9.438;2023-03-01T10:09:55;15.90;;;14.20;;
3704;SDS011;1868;48.918;9.438;2023-03-01T10:12:25;15.60;;;13.43;;
3704;SDS011;1868;48.918;9.438;2023-03-01T10:15:00;15.30;;;13.70;;
3704;SDS011;1868;48.918;9.438;2023-03-01T10:17:36;15.77;;;13.90;;
3704;SDS011;1868;48.918;9.438;2023-03-01T10:20:14;14.10;;;12.70;;
3704;SDS011;1868;48.918;9.438;2023-03-01T10:22:47;15.47;;;13.87;;
3704;SDS011;1868;48.918;9.438;2023-03-01T10:25:22;14.73;;;13.07;;
3704;SDS011;1868;48.918;9.438;2023-03-01T10:28:05;15.40;;;12.93;;
3704;SDS011;1868;48.918;9.438;2023-03-01T10:30:44;16.93;;;15.13;;
3704;SDS011;1868;48.918;9.438;2023-03-01T10:33:15;16.53;;;12.40;;
3704;SDS011;1868;48.918;9.438;2023-03-01T10:35:48;17.70;;;14.40;;
3704;SDS011;1868;48.918;9.438;2023-03-01T10:38:17;14.40;;;12.87;;
3704;SDS011;1868;48.918;9.438;2023-03-01T10:40:51;15.33;;;13.70;;
3704;SDS011;1868;48.918;9.438;2023-03-01T10:43:23;15.40;;;13.80;;
3704;SDS011;1868;48.918;9.438;2023-03-01T10:45:53;17.53;;;14.60;;
3704;SDS011;1868;48.918;9.438;2023-03-01T10:48:23;17.50;;;14.07;;
3704;SDS011;1868;48.918;9.438;2023-03-01T10:51:04;14.77;;;13.17;;
3704;SDS011;1868;48.918;9.438;2023-03-01T10:53:35;15.93;;;14.30;;
3704;SDS011;1868;48.918;9.438;2023-03-01T10:56:07;14.10;;;12.70;;
3704;SDS011;1868;48.918;9.438;2023-03-01T10:58:40;14.27;;;12.93;;
3704;SDS011;1868;48.918;9.438;2023-03-01T11:01:26;14.77;;;13.17;;
3704;SDS011;1868;48.918;9.438;2023-03-01T11:04:09;13.90;;;11.70;;
3704;SDS011;1868;48.918;9.438;2023-03-01T11:06:40;15.47;;;13.80;;
3704;SDS011;1868;48.918;9.438;2023-03-01T11:09:15;11.20;;;10.10;;
3704;SDS011;1868;48.918;9.438;2023-03-01T11:11:46;13.70;;;12.30;;
3704;SDS011;1868;48.918;9.438;2023-03-01T11:14:21;15.47;;;12.30;;
3704;SDS011;1868;48.918;9.438;2023-03-01T11:17:00;19.97;;;13.20;;
3704;SDS011;1868;48.918;9.438;2023-03-01T11:19:32;15.67;;;12.90;;
3704;SDS011;1868;48.918;9.438;2023-03-01T11:22:01;15.07;;;13.53;;
3704;SDS011;1868;48.918;9.438;2023-03-01T11:24:34;13.30;;;12.00;;
3704;SDS011;1868;48.918;9.438;2023-03-01T11:27:14;14.23;;;12.83;;
3704;SDS011;1868;48.918;9.438;2023-03-01T11:29:46;15.33;;;12.20;;
3704;SDS011;1868;48.918;9.438;2023-03-01T11:32:19;15.93;;;12.80;;
3704;SDS011;1868;48.918;9.438;2023-03-01T11:34:55;12.57;;;11.47;;
3704;SDS011;1868;48.918;9.438;2023-03-01T11:37:29;15.03;;;12.13;;
3704;SDS011;1868;48.918;9.438;2023-03-01T11:40:11;14.90;;;12.90;;
3704;SDS011;1868;48.918;9.438;2023-03-01T11:42:50;13.17;;;11.87;;
3704;SDS011;1868;48.918;9.438;2023-03-01T11:45:37;12.37;;;11.23;;
3704;SDS011;1868;48.918;9.438;2023-03-01T11:48:24;14.93;;;12.90;;
3704;SDS011;1868;48.918;9.438;2023-03-01T11:51:18;13.40;;;12.10;;
3704;SDS011;1868;48.918;9.438;2023-03-01T11:54:02;13.47;;;12.17;;
3704;SDS011;1868;48.918;9.438;2023-03-01T11:56:42;14.07;;;12.17;;
3704;SDS011;1868;48.918;9.438;2023-03-01T12:06:02;12.87;;;11.60;;
3704;SDS011;1868;48.918;9.438;2023-03-01T12:08:57;16.60;;;13.70;;
3704;SDS011;1868;48.918;9.438;2023-03-01T12:11:42;20.57;;;12.63;;
3704;SDS011;1868;48.918;9.438;2023-03-01T12:14:35;17.57;;;12.77;;
3704;SDS011;1868;48.918;9.438;2023-03-01T12:17:34;14.67;;;13.00;;
3704;SDS011;1868;48.918;9.438;2023-03-01T12:20:28;15.47;;;12.93;;
3704;SDS011;1868;48.918;9.438;2023-03-01T12:23:14;14.87;;;12.60;;
3704;SDS011;1868;48.918;9.438;2023-03-01T12:26:01;14.33;;;12.83;;
3704;SDS011;1868;48.918;9.438;2023-03-01T12:28:45;13.63;;;12.23;;
3704;SDS011;1868;48.918;9.438;2023-03-01T12:31:33;14.27;;;12.70;;
3704;SDS011;1868;48.918;9.438;2023-03-01T12:34:32;13.70;;;11.73;;
3704;SDS011;1868;48.918;9.438;2023-03-01T12:37:21;12.57;;;11.30;;
3704;SDS011;1868;48.918;9.438;2023-03-01T12:40:03;14.03;;;12.63;;
3704;SDS011;1868;48.918;9.438;2023-03-01T12:42:53;18.00;;;13.53;;
3704;SDS011;1868;48.918;9.438;2023-03-01T12:45:39;15.83;;;12.27;;
3704;SDS011;1868;48.918;9.438;2023-03-01T12:48:31;13.17;;;11.87;;
3704;SDS011;1868;48.918;9.438;2023-03-01T12:51:18;13.37;;;11.77;;
3704;SDS011;1868;48.918;9.438;2023-03-01T12:53:52;15.70;;;13.83;;
3704;SDS011;1868;48.918;9.438;2023-03-01T12:56:28;14.47;;;12.97;;
3704;SDS011;1868;48.918;9.438;2023-03-01T12:59:02;14.70;;;12.20;;
3704;SDS011;1868;48.918;9.438;2023-03-01T13:01:45;14.47;;;12.97;;
3704;SDS011;1868;48.918;9.438;2023-03-01T13:07:27;13.97;;;12.57;;
3704;SDS011;1868;48.918;9.438;2023-03-01T13:10:05;17.13;;;14.13;;
3704;SDS011;1868;48.918;9.438;2023-03-01T13:12:53;13.40;;;12.10;;
3704;SDS011;1868;48.918;9.438;2023-03-01T13:15:36;16.37;;;13.60;;
3704;SDS011;1868;48.918;9.438;2023-03-01T13:20:59;16.00;;;14.00;;
3704;SDS011;1868;48.918;9.438;2023-03-01T13:23:35;16.60;;;14.43;;
3704;SDS011;1868;48.918;9.438;2023-03-01T13:26:07;15.60;;;13.33;;
3704;SDS011;1868;48.918;9.438;2023-03-01T13:28:56;16.87;;;15.17;;
3704;SDS011;1868;48.918;9.438;2023-03-01T13:31:55;17.20;;;15.50;;
3704;SDS011;1868;48.918;9.438;2023-03-01T13:34:40;17.17;;;15.40;;
3704;SDS011;1868;48.918;9.438;2023-03-01T13:37:26;18.17;;;16.33;;
3704;SDS011;1868;48.918;9.438;2023-03-01T13:40:08;16.90;;;15.17;;
3704;SDS011;1868;48.918;9.438;2023-03-01T13:43:28;15.50;;;13.90;;
3704;SDS011;1868;48.918;9.438;2023-03-01T13:45:59;17.80;;;15.90;;
3704;SDS011;1868;48.918;9.438;2023-03-01T13:48:30;15.67;;;14.07;;
3704;SDS011;1868;48.918;9.438;2023-03-01T13:51:01;16.43;;;14.03;;
3704;SDS011;1868;48.918;9.438;2023-03-01T13:53:33;16.93;;;14.97;;
3704;SDS011;1868;48.918;9.438;2023-03-01T13:56:08;18.53;;;15.50;;
3704;SDS011;1868;48.918;9.438;2023-03-01T13:58:49;16.87;;;15.10;;
3704;SDS011;1868;48.918;9.438;2023-03-01T14:01:21;18.70;;;14.80;;
3704;SDS011;1868;48.918;9.438;2023-03-01T14:03:55;21.00;;;16.00;;
3704;SDS011;1868;48.918;9.438;2023-03-01T14:06:25;20.97;;;16.53;;
3704;SDS011;1868;48.918;9.438;2023-03-01T14:09:03;17.43;;;14.77;;
3704;SDS011;1868;48.918;9.438;2023-03-01T14:11:52;19.20;;;16.83;;
3704;SDS011;1868;48.918;9.438;2023-03-01T14:14:36;19.70;;;15.80;;
3704;SDS011;1868;48.918;9.438;2023-03-01T14:20:18;20.23;;;16.13;;
3704;SDS011;1868;48.918;9.438;2023-03-01T14:22:50;22.60;;;16.03;;
3704;SDS011;1868;48.918;9.438;2023-03-01T14:25:23;17.97;;;15.10;;
3704;SDS011;1868;48.918;9.438;2023-03-01T14:27:57;20.40;;;16.73;;
3704;SDS011;1868;48.918;9.438;2023-03-01T14:30:33;21.10;;;16.30;;
3704;SDS011;1868;48.918;9.438;2023-03-01T14:33:05;18.00;;;14.70;;
3704;SDS011;1868;48.918;9.438;2023-03-01T14:35:54;18.90;;;16.30;;
3704;SDS011;1868;48.918;9.438;2023-03-01T14:38:29;19.10;;;16.83;;
3704;SDS011;1868;48.918;9.438;2023-03-01T14:41:02;23.53;;;17.70;;
3704;SDS011;1868;48.918;9.438;2023-03-01T14:43:34;21.53;;;16.17;;
3704;SDS011;1868;48.918;9.438;2023-03-01T14:46:16;19.17;;;15.60;;
3704;SDS011;1868;48.918;9.438;2023-03-01T14:48:48;20.63;;;16.50;;
3704;SDS011;1868;48.918;9.438;2023-03-01T14:51:18;18.60;;;15.73;;
3704;SDS011;1868;48.918;9.438;2023-03-01T14:53:46;18.07;;;16.17;;
3704;SDS011;1868;48.918;9.438;2023-03-01T14:56:16;20.57;;;17.13;;
3704;SDS011;1868;48.918;9.438;2023-03-01T14:58:47;22.60;;;17.03;;
3704;SDS011;1868;48.918;9.438;2023-03-01T15:01:20;22.20;;;16.07;;
3704;SDS011;1868;48.918;9.438;2023-03-01T15:03:49;19.50;;;16.20;;
3704;SDS011;1868;48.918;9.438;2023-03-01T15:06:19;20.10;;;16.10;;
3704;SDS011;1868;48.918;9.438;2023-03-01T15:08:51;20.60;;;15.97;;
3704;SDS011;1868;48.918;9.438;2023-03-01T15:11:24;20.87;;;17.23;;
3704;SDS011;1868;48.918;9.438;2023-03-01T15:14:01;17.13;;;15.33;;
3704;SDS011;1868;48.918;9.438;2023-03-01T15:17:30;18.00;;;15.93;;
3704;SDS011;1868;48.918;9.438;2023-03-01T15:20:01;20.17;;;17.57;;
3704;SDS011;1868;48.918;9.438;2023-03-01T15:22:36;19.80;;;17.07;;
3704;SDS011;1868;48.918;9.438;2023-03-01T15:28:39;20.30;;;16.00;;
3704;SDS011;1868;48.918;9.438;2023-03-01T15:31:28;21.43;;;17.20;;
3704;SDS011;1868;48.918;9.438;2023-03-01T15:34:08;19.53;;;16.33;;
3704;SDS011;1868;48.918;9.438;2023-03-01T15:36:47;20.97;;;15.90;;
3704;SDS011;1868;48.918;9.438;2023-03-01T15:39:26;19.40;;;15.20;;
3704;SDS011;1868;48.918;9.438;2023-03-01T15:42:11;18.53;;;15.90;;
3704;SDS011;1868;48.918;9.438;2023-03-01T15:44:43;21.50;;;15.77;;
3704;SDS011;1868;48.918;9.438;2023-03-01T15:47:23;19.73;;;15.90;;
3704;SDS011;1868;48.918;9.438;2023-03-01T15:52:52;21.03;;;15.80;;
3704;SDS011;1868;48.918;9.438;2023-03-01T15:55:22;22.37;;;17.23;;